sensor_id;sensor_type;location;lat;lon;timestamp;temperature;humidity
12602;DHT22;30282;16.436;99.370;2023-09-12T00:01:19;26.90;99.90
12602;DHT22;30282;16.436;99.370;2023-09-12T00:03:48;27.00;99.90
12602;DHT22;30282;16.436;99.370;2023-09-12T00:06:17;27.00;99.90
12602;DHT22;30282;16.436;99.370;2023-09-12T00:08:48;27.00;99.90
12602;DHT22;30282;16.436;99.370;2023-09-12T00:11:17;27.00;99.90
12602;DHT22;30282;16.436;99.370;2023-09-12T00:13:46;27.00;99.90
12602;DHT22;30282;16.436;99.370;2023-09-12T00:16:15;27.00;99.90
12602;DHT22;30282;16.436;99.370;2023-09-12T00:18:44;27.00;99.90
12602;DHT22;30282;16.436;99.370;2023-09-12T00:21:13;26.90;99.90
12602;DHT22;30282;16.436;99.370;2023-09-12T00:23:42;26.90;99.90
12602;DHT22;30282;16.436;99.370;2023-09-12T00:26:13;26.90;99.90
12602;DHT22;30282;16.436;99.370;2023-09-12T00:28:42;26.90;99.90
12602;DHT22;30282;16.436;99.370;2023-09-12T00:31:11;27.00;99.90
12602;DHT22;30282;16.436;99.370;2023-09-12T00:33:40;27.00;99.90
12602;DHT22;30282;16.436;99.370;2023-09-12T00:36:09;27.00;99.90
12602;DHT22;30282;16.436;99.370;2023-09-12T00:38:38;27.00;99.90
12602;DHT22;30282;16.436;99.370;2023-09-12T00:41:07;26.90;99.90
12602;DHT22;30282;16.436;99.370;2023-09-12T00:43:38;27.00;99.90
12602;DHT22;30282;16.436;99.370;2023-09-12T00:46:07;27.00;99.90
12602;DHT22;30282;16.436;99.370;2023-09-12T00:48:36;27.00;99.90
12602;DHT22;30282;16.436;99.370;2023-09-12T00:51:06;27.00;99.90
12602;DHT22;30282;16.436;99.370;2023-09-12T00:53:36;27.00;99.90
12602;DHT22;30282;16.436;99.370;2023-09-12T00:56:05;27.00;99.90
12602;DHT22;30282;16.436;99.370;2023-09-12T00:58:35;27.00;99.90
12602;DHT22;30282;16.436;99.370;2023-09-12T01:01:06;27.00;99.90
12602;DHT22;30282;16.436;99.370;2023-09-12T01:03:35;26.90;99.90
12602;DHT22;30282;16.436;99.370;2023-09-12T01:06:07;26.90;99.90
12602;DHT22;30282;16.436;99.370;2023-09-12T01:08:37;26.90;99.90
12602;DHT22;30282;16.436;99.370;2023-09-12T01:11:06;26.90;99.90
12602;DHT22;30282;16.436;99.370;2023-09-12T01:13:35;26.90;99.90
12602;DHT22;30282;16.436;99.370;2023-09-12T01:16:06;26.90;99.90
12602;DHT22;30282;16.436;99.370;2023-09-12T01:18:35;26.90;99.90
12602;DHT22;30282;16.436;99.370;2023-09-12T01:21:24;26.90;99.90
12602;DHT22;30282;16.436;99.370;2023-09-12T01:27:27;26.90;99.90
12602;DHT22;30282;16.436;99.370;2023-09-12T01:29:59;27.00;99.90
12602;DHT22;30282;16.436;99.370;2023-09-12T01:32:29;27.00;99.90
12602;DHT22;30282;16.436;99.370;2023-09-12T01:34:59;27.00;99.90
12602;DHT22;30282;16.436;99.370;2023-09-12T01:37:30;27.00;99.90
12602;DHT22;30282;16.436;99.370;2023-09-12T01:39:59;27.10;99.90
12602;DHT22;30282;16.436;99.370;2023-09-12T01:42:36;27.20;99.90
12602;DHT22;30282;16.436;99.370;2023-09-12T01:45:09;27.20;99.90
12602;DHT22;30282;16.436;99.370;2023-09-12T01:47:39;27.20;99.90
12602;DHT22;30282;16.436;99.370;2023-09-12T01:50:10;27.30;99.90
12602;DHT22;30282;16.436;99.370;2023-09-12T01:52:41;27.30;99.90
12602;DHT22;30282;16.436;99.370;2023-09-12T01:55:11;27.30;99.90
12602;DHT22;30282;16.436;99.370;2023-09-12T01:57:42;27.30;99.90
12602;DHT22;30282;16.436;99.370;2023-09-12T02:00:13;27.30;99.90
12602;DHT22;30282;16.436;99.370;2023-09-12T02:02:42;27.30;99.90
12602;DHT22;30282;16.436;99.370;2023-09-12T02:05:14;27.30;99.90
12602;DHT22;30282;16.436;99.370;2023-09-12T02:07:46;27.20;99.90
12602;DHT22;30282;16.436;99.370;2023-09-12T02:10:15;27.30;99.90
12602;DHT22;30282;16.436;99.370;2023-09-12T02:12:46;27.30;99.90
12602;DHT22;30282;16.436;99.370;2023-09-12T02:15:15;27.20;99.90
12602;DHT22;30282;16.436;99.370;2023-09-12T02:17:47;27.20;99.90
12602;DHT22;30282;16.436;99.370;2023-09-12T02:20:17;27.20;99.90
12602;DHT22;30282;16.436;99.370;2023-09-12T02:22:47;27.30;99.90
12602;DHT22;30282;16.436;99.370;2023-09-12T02:25:16;27.30;99.90
12602;DHT22;30282;16.436;99.370;2023-09-12T02:27:47;27.30;99.90
12602;DHT22;30282;16.436;99.370;2023-09-12T02:30:16;27.30;99.90
12602;DHT22;30282;16.436;99.370;2023-09-12T02:32:45;27.30;99.90
12602;DHT22;30282;16.436;99.370;2023-09-12T02:35:14;27.40;99.90
12602;DHT22;30282;16.436;99.370;2023-09-12T02:37:43;27.40;99.90
12602;DHT22;30282;16.436;99.370;2023-09-12T02:40:13;27.40;99.90
12602;DHT22;30282;16.436;99.370;2023-09-12T02:42:42;27.40;99.90
12602;DHT22;30282;16.436;99.370;2023-09-12T02:45:12;27.30;99.90
12602;DHT22;30282;16.436;99.370;2023-09-12T02:47:42;27.40;99.90
12602;DHT22;30282;16.436;99.370;2023-09-12T02:50:13;27.40;99.90
12602;DHT22;30282;16.436;99.370;2023-09-12T02:52:42;27.50;99.90
12602;DHT22;30282;16.436;99.370;2023-09-12T02:55:16;27.50;99.90
12602;DHT22;30282;16.436;99.370;2023-09-12T02:57:45;27.50;99.90
12602;DHT22;30282;16.436;99.370;2023-09-12T03:00:16;27.60;99.90
12602;DHT22;30282;16.436;99.370;2023-09-12T03:02:46;27.60;99.90
12602;DHT22;30282;16.436;99.370;2023-09-12T03:05:16;27.60;99.90
12602;DHT22;30282;16.436;99.370;2023-09-12T03:07:45;27.60;99.90
12602;DHT22;30282;16.436;99.370;2023-09-12T03:10:15;27.60;99.90
12602;DHT22;30282;16.436;99.370;2023-09-12T03:12:44;27.60;99.90
12602;DHT22;30282;16.436;99.370;2023-09-12T03:15:15;27.70;99.90
12602;DHT22;30282;16.436;99.370;2023-09-12T03:17:47;27.70;99.90
12602;DHT22;30282;16.436;99.370;2023-09-12T03:20:17;27.80;99.90
12602;DHT22;30282;16.436;99.370;2023-09-12T03:22:47;27.80;99.90
12602;DHT22;30282;16.436;99.370;2023-09-12T03:25:16;27.90;99.90
12602;DHT22;30282;16.436;99.370;2023-09-12T03:27:45;27.90;99.90
12602;DHT22;30282;16.436;99.370;2023-09-12T03:30:16;27.90;99.90
12602;DHT22;30282;16.436;99.370;2023-09-12T03:32:46;27.90;99.90
12602;DHT22;30282;16.436;99.370;2023-09-12T03:35:15;27.90;99.90
12602;DHT22;30282;16.436;99.370;2023-09-12T03:37:44;27.90;99.90
12602;DHT22;30282;16.436;99.370;2023-09-12T03:40:14;27.90;99.90
12602;DHT22;30282;16.436;99.370;2023-09-12T03:42:43;27.90;99.90
12602;DHT22;30282;16.436;99.370;2023-09-12T03:45:12;28.00;99.90
12602;DHT22;30282;16.436;99.370;2023-09-12T03:47:43;28.10;99.90
12602;DHT22;30282;16.436;99.370;2023-09-12T03:50:16;28.20;99.90
12602;DHT22;30282;16.436;99.370;2023-09-12T03:52:45;28.30;99.90
12602;DHT22;30282;16.436;99.370;2023-09-12T03:55:15;28.40;99.90
12602;DHT22;30282;16.436;99.370;2023-09-12T03:57:44;28.30;99.90
12602;DHT22;30282;16.436;99.370;2023-09-12T04:00:14;28.40;99.90
12602;DHT22;30282;16.436;99.370;2023-09-12T04:02:46;28.50;99.90
12602;DHT22;30282;16.436;99.370;2023-09-12T04:05:15;28.50;99.90
12602;DHT22;30282;16.436;99.370;2023-09-12T04:07:44;28.50;99.90
12602;DHT22;30282;16.436;99.370;2023-09-12T04:10:14;28.40;99.90
12602;DHT22;30282;16.436;99.370;2023-09-12T04:12:45;28.50;99.90
12602;DHT22;30282;16.436;99.370;2023-09-12T04:15:14;28.60;99.90
12602;DHT22;30282;16.436;99.370;2023-09-12T04:17:45;28.60;99.90
12602;DHT22;30282;16.436;99.370;2023-09-12T04:20:15;28.60;99.90
12602;DHT22;30282;16.436;99.370;2023-09-12T04:22:44;28.70;99.90
12602;DHT22;30282;16.436;99.370;2023-09-12T04:25:13;28.80;99.90
12602;DHT22;30282;16.436;99.370;2023-09-12T04:27:43;28.70;99.90
12602;DHT22;30282;16.436;99.370;2023-09-12T04:30:13;28.80;99.90
12602;DHT22;30282;16.436;99.370;2023-09-12T04:32:44;28.90;99.90
12602;DHT22;30282;16.436;99.370;2023-09-12T04:35:13;28.90;99.90
12602;DHT22;30282;16.436;99.370;2023-09-12T04:37:42;29.00;99.90
12602;DHT22;30282;16.436;99.370;2023-09-12T04:40:12;29.00;99.90
12602;DHT22;30282;16.436;99.370;2023-09-12T04:42:41;28.90;99.90
12602;DHT22;30282;16.436;99.370;2023-09-12T04:45:11;28.90;99.90
12602;DHT22;30282;16.436;99.370;2023-09-12T04:47:40;29.00;99.90
12602;DHT22;30282;16.436;99.370;2023-09-12T04:50:11;29.00;99.90
12602;DHT22;30282;16.436;99.370;2023-09-12T04:52:40;29.20;99.90
12602;DHT22;30282;16.436;99.370;2023-09-12T04:55:10;29.30;99.90
12602;DHT22;30282;16.436;99.370;2023-09-12T04:57:39;29.30;99.90
12602;DHT22;30282;16.436;99.370;2023-09-12T05:00:09;29.30;99.90
12602;DHT22;30282;16.436;99.370;2023-09-12T05:02:40;29.40;99.90
12602;DHT22;30282;16.436;99.370;2023-09-12T05:05:11;29.40;99.90
12602;DHT22;30282;16.436;99.370;2023-09-12T05:07:40;29.40;99.90
12602;DHT22;30282;16.436;99.370;2023-09-12T05:10:10;29.40;99.90
12602;DHT22;30282;16.436;99.370;2023-09-12T05:12:39;29.50;99.90
12602;DHT22;30282;16.436;99.370;2023-09-12T05:15:09;29.50;99.90
12602;DHT22;30282;16.436;99.370;2023-09-12T05:17:38;29.50;99.90
12602;DHT22;30282;16.436;99.370;2023-09-12T05:20:11;29.50;99.90
12602;DHT22;30282;16.436;99.370;2023-09-12T05:22:40;29.50;99.90
12602;DHT22;30282;16.436;99.370;2023-09-12T05:25:09;29.50;99.90
12602;DHT22;30282;16.436;99.370;2023-09-12T05:27:39;29.50;99.90
12602;DHT22;30282;16.436;99.370;2023-09-12T05:30:08;29.50;99.90
12602;DHT22;30282;16.436;99.370;2023-09-12T05:32:38;29.50;99.90
12602;DHT22;30282;16.436;99.370;2023-09-12T05:35:08;29.60;99.90
12602;DHT22;30282;16.436;99.370;2023-09-12T05:37:39;29.60;99.90
12602;DHT22;30282;16.436;99.370;2023-09-12T05:40:09;29.70;99.90
12602;DHT22;30282;16.436;99.370;2023-09-12T05:42:38;29.70;99.90
12602;DHT22;30282;16.436;99.370;2023-09-12T05:45:08;29.80;99.90
12602;DHT22;30282;16.436;99.370;2023-09-12T05:47:37;29.80;99.90
12602;DHT22;30282;16.436;99.370;2023-09-12T05:50:07;29.80;99.90
12602;DHT22;30282;16.436;99.370;2023-09-12T05:52:38;29.80;99.90
12602;DHT22;30282;16.436;99.370;2023-09-12T05:55:09;29.80;99.90
12602;DHT22;30282;16.436;99.370;2023-09-12T05:57:39;29.80;99.90
12602;DHT22;30282;16.436;99.370;2023-09-12T06:00:10;29.80;99.90
12602;DHT22;30282;16.436;99.370;2023-09-12T06:02:41;29.90;99.90
12602;DHT22;30282;16.436;99.370;2023-09-12T06:05:11;29.90;99.90
12602;DHT22;30282;16.436;99.370;2023-09-12T06:07:42;29.90;99.90
12602;DHT22;30282;16.436;99.370;2023-09-12T06:10:11;29.90;99.90
12602;DHT22;30282;16.436;99.370;2023-09-12T06:12:40;30.00;99.90
12602;DHT22;30282;16.436;99.370;2023-09-12T06:15:10;29.90;99.90
12602;DHT22;30282;16.436;99.370;2023-09-12T06:17:39;29.90;99.90
12602;DHT22;30282;16.436;99.370;2023-09-12T06:20:10;30.00;99.90
12602;DHT22;30282;16.436;99.370;2023-09-12T06:22:41;30.10;99.90
12602;DHT22;30282;16.436;99.370;2023-09-12T06:25:10;30.10;99.90
12602;DHT22;30282;16.436;99.370;2023-09-12T06:27:39;30.10;99.90
12602;DHT22;30282;16.436;99.370;2023-09-12T06:30:09;30.10;99.90
12602;DHT22;30282;16.436;99.370;2023-09-12T06:32:39;30.20;99.90
12602;DHT22;30282;16.436;99.370;2023-09-12T06:35:09;30.10;99.90
12602;DHT22;30282;16.436;99.370;2023-09-12T06:37:40;30.10;99.90
12602;DHT22;30282;16.436;99.370;2023-09-12T06:40:10;30.30;99.90
12602;DHT22;30282;16.436;99.370;2023-09-12T06:42:39;30.30;99.90
12602;DHT22;30282;16.436;99.370;2023-09-12T06:45:09;30.40;99.90
12602;DHT22;30282;16.436;99.370;2023-09-12T06:47:38;30.50;99.90
12602;DHT22;30282;16.436;99.370;2023-09-12T06:50:08;30.50;99.90
12602;DHT22;30282;16.436;99.370;2023-09-12T06:52:38;30.60;99.90
12602;DHT22;30282;16.436;99.370;2023-09-12T06:55:09;30.50;99.90
12602;DHT22;30282;16.436;99.370;2023-09-12T06:57:38;30.40;99.90
12602;DHT22;30282;16.436;99.370;2023-09-12T07:00:09;30.40;99.90
12602;DHT22;30282;16.436;99.370;2023-09-12T07:02:38;30.40;99.90
12602;DHT22;30282;16.436;99.370;2023-09-12T07:05:08;30.40;99.90
12602;DHT22;30282;16.436;99.370;2023-09-12T07:07:37;30.50;99.90
12602;DHT22;30282;16.436;99.370;2023-09-12T07:10:09;30.50;99.90
12602;DHT22;30282;16.436;99.370;2023-09-12T07:12:38;30.40;99.90
12602;DHT22;30282;16.436;99.370;2023-09-12T07:15:08;30.40;99.90
12602;DHT22;30282;16.436;99.370;2023-09-12T07:17:38;30.50;99.90
12602;DHT22;30282;16.436;99.370;2023-09-12T07:20:08;30.50;99.90
12602;DHT22;30282;16.436;99.370;2023-09-12T07:22:39;30.60;99.90
12602;DHT22;30282;16.436;99.370;2023-09-12T07:25:10;30.50;99.90
12602;DHT22;30282;16.436;99.370;2023-09-12T07:27:40;30.40;99.90
12602;DHT22;30282;16.436;99.370;2023-09-12T07:30:10;30.40;99.90
12602;DHT22;30282;16.436;99.370;2023-09-12T07:32:39;30.30;99.90
12602;DHT22;30282;16.436;99.370;2023-09-12T07:35:09;30.30;99.90
12602;DHT22;30282;16.436;99.370;2023-09-12T07:37:38;30.30;99.90
12602;DHT22;30282;16.436;99.370;2023-09-12T07:40:10;30.40;99.90
12602;DHT22;30282;16.436;99.370;2023-09-12T07:42:43;30.40;99.90
12602;DHT22;30282;16.436;99.370;2023-09-12T07:45:12;30.50;99.90
12602;DHT22;30282;16.436;99.370;2023-09-12T07:47:41;30.50;99.90
12602;DHT22;30282;16.436;99.370;2023-09-12T07:50:11;30.50;99.90
12602;DHT22;30282;16.436;99.370;2023-09-12T07:52:40;30.50;99.90
12602;DHT22;30282;16.436;99.370;2023-09-12T07:55:11;30.50;99.90
12602;DHT22;30282;16.436;99.370;2023-09-12T07:57:41;30.50;99.90
12602;DHT22;30282;16.436;99.370;2023-09-12T08:00:11;30.40;99.90
12602;DHT22;30282;16.436;99.370;2023-09-12T08:02:44;30.40;99.90
12602;DHT22;30282;16.436;99.370;2023-09-12T08:05:13;30.30;99.90
12602;DHT22;30282;16.436;99.370;2023-09-12T08:07:42;30.30;99.90
12602;DHT22;30282;16.436;99.370;2023-09-12T08:10:13;30.30;99.90
12602;DHT22;30282;16.436;99.370;2023-09-12T08:12:42;30.30;99.90
12602;DHT22;30282;16.436;99.370;2023-09-12T08:15:12;30.30;99.90
12602;DHT22;30282;16.436;99.370;2023-09-12T08:17:41;30.20;99.90
12602;DHT22;30282;16.436;99.370;2023-09-12T08:20:11;30.20;99.90
12602;DHT22;30282;16.436;99.370;2023-09-12T08:22:40;30.20;99.90
12602;DHT22;30282;16.436;99.370;2023-09-12T08:25:10;30.10;99.90
12602;DHT22;30282;16.436;99.370;2023-09-12T08:27:41;30.10;99.90
12602;DHT22;30282;16.436;99.370;2023-09-12T08:30:12;30.10;99.90
12602;DHT22;30282;16.436;99.370;2023-09-12T08:32:42;30.10;99.90
12602;DHT22;30282;16.436;99.370;2023-09-12T08:35:12;30.00;99.90
12602;DHT22;30282;16.436;99.370;2023-09-12T08:37:42;29.90;99.90
12602;DHT22;30282;16.436;99.370;2023-09-12T08:40:12;29.80;99.90
12602;DHT22;30282;16.436;99.370;2023-09-12T08:42:43;29.80;99.90
12602;DHT22;30282;16.436;99.370;2023-09-12T08:45:14;29.70;99.90
12602;DHT22;30282;16.436;99.370;2023-09-12T08:47:44;29.60;99.90
12602;DHT22;30282;16.436;99.370;2023-09-12T08:50:15;29.50;99.90
12602;DHT22;30282;16.436;99.370;2023-09-12T08:52:46;29.50;99.90
12602;DHT22;30282;16.436;99.370;2023-09-12T08:55:16;29.40;99.90
12602;DHT22;30282;16.436;99.370;2023-09-12T08:57:50;29.40;99.90
12602;DHT22;30282;16.436;99.370;2023-09-12T09:00:20;29.40;99.90
12602;DHT22;30282;16.436;99.370;2023-09-12T09:02:50;29.40;99.90
12602;DHT22;30282;16.436;99.370;2023-09-12T09:05:21;29.40;99.90
12602;DHT22;30282;16.436;99.370;2023-09-12T09:07:52;29.40;99.90
12602;DHT22;30282;16.436;99.370;2023-09-12T09:10:23;29.30;99.90
12602;DHT22;30282;16.436;99.370;2023-09-12T09:12:55;29.30;99.90
12602;DHT22;30282;16.436;99.370;2023-09-12T09:15:25;29.40;99.90
12602;DHT22;30282;16.436;99.370;2023-09-12T09:17:56;29.30;99.90
12602;DHT22;30282;16.436;99.370;2023-09-12T09:20:28;29.20;99.90
12602;DHT22;30282;16.436;99.370;2023-09-12T09:22:59;29.10;99.90
12602;DHT22;30282;16.436;99.370;2023-09-12T09:25:32;29.10;99.90
12602;DHT22;30282;16.436;99.370;2023-09-12T09:28:05;29.00;99.90
12602;DHT22;30282;16.436;99.370;2023-09-12T09:30:45;28.90;99.90
12602;DHT22;30282;16.436;99.370;2023-09-12T09:33:14;28.90;99.90
12602;DHT22;30282;16.436;99.370;2023-09-12T09:35:46;28.90;99.90
12602;DHT22;30282;16.436;99.370;2023-09-12T09:38:15;28.80;99.90
12602;DHT22;30282;16.436;99.370;2023-09-12T09:40:48;28.80;99.90
12602;DHT22;30282;16.436;99.370;2023-09-12T09:43:22;28.80;99.90
12602;DHT22;30282;16.436;99.370;2023-09-12T09:45:52;28.70;99.90
12602;DHT22;30282;16.436;99.370;2023-09-12T09:48:22;28.70;99.90
12602;DHT22;30282;16.436;99.370;2023-09-12T09:50:51;28.60;99.90
12602;DHT22;30282;16.436;99.370;2023-09-12T09:53:27;28.60;99.90
12602;DHT22;30282;16.436;99.370;2023-09-12T09:56:11;28.50;99.90
12602;DHT22;30282;16.436;99.370;2023-09-12T09:58:46;28.50;99.90
12602;DHT22;30282;16.436;99.370;2023-09-12T10:01:17;28.60;99.90
12602;DHT22;30282;16.436;99.370;2023-09-12T10:03:48;28.60;99.90
12602;DHT22;30282;16.436;99.370;2023-09-12T10:06:18;28.70;99.90
12602;DHT22;30282;16.436;99.370;2023-09-12T10:08:51;28.80;99.90
12602;DHT22;30282;16.436;99.370;2023-09-12T10:11:23;28.60;99.90
12602;DHT22;30282;16.436;99.370;2023-09-12T10:13:56;28.50;99.90
12602;DHT22;30282;16.436;99.370;2023-09-12T10:16:29;28.50;99.90
12602;DHT22;30282;16.436;99.370;2023-09-12T10:19:10;28.50;99.90
12602;DHT22;30282;16.436;99.370;2023-09-12T10:21:49;28.40;99.90
12602;DHT22;30282;16.436;99.370;2023-09-12T10:24:19;28.50;99.90
12602;DHT22;30282;16.436;99.370;2023-09-12T10:26:50;28.50;99.90
12602;DHT22;30282;16.436;99.370;2023-09-12T10:29:24;28.40;99.90
12602;DHT22;30282;16.436;99.370;2023-09-12T10:31:53;28.40;99.90
12602;DHT22;30282;16.436;99.370;2023-09-12T10:34:24;28.40;99.90
12602;DHT22;30282;16.436;99.370;2023-09-12T10:36:56;28.40;99.90
12602;DHT22;30282;16.436;99.370;2023-09-12T10:39:28;28.30;99.90
12602;DHT22;30282;16.436;99.370;2023-09-12T10:41:59;28.30;99.90
12602;DHT22;30282;16.436;99.370;2023-09-12T10:44:34;28.30;99.90
12602;DHT22;30282;16.436;99.370;2023-09-12T10:47:06;28.20;99.90
12602;DHT22;30282;16.436;99.370;2023-09-12T10:49:37;28.20;99.90
12602;DHT22;30282;16.436;99.370;2023-09-12T10:52:07;28.20;99.90
12602;DHT22;30282;16.436;99.370;2023-09-12T10:54:37;28.20;99.90
12602;DHT22;30282;16.436;99.370;2023-09-12T10:57:08;28.20;99.90
12602;DHT22;30282;16.436;99.370;2023-09-12T11:00:12;28.20;99.90
12602;DHT22;30282;16.436;99.370;2023-09-12T11:02:44;28.20;99.90
12602;DHT22;30282;16.436;99.370;2023-09-12T11:05:45;28.20;99.90
12602;DHT22;30282;16.436;99.370;2023-09-12T11:08:20;28.20;99.90
12602;DHT22;30282;16.436;99.370;2023-09-12T11:11:18;28.20;99.90
12602;DHT22;30282;16.436;99.370;2023-09-12T11:14:03;28.20;99.90
12602;DHT22;30282;16.436;99.370;2023-09-12T11:16:35;28.20;99.90
12602;DHT22;30282;16.436;99.370;2023-09-12T11:19:15;28.20;99.90
12602;DHT22;30282;16.436;99.370;2023-09-12T11:21:46;28.10;99.90
12602;DHT22;30282;16.436;99.370;2023-09-12T11:24:17;28.10;99.90
12602;DHT22;30282;16.436;99.370;2023-09-12T11:27:00;28.00;99.90
12602;DHT22;30282;16.436;99.370;2023-09-12T11:29:36;28.00;99.90
12602;DHT22;30282;16.436;99.370;2023-09-12T11:32:08;28.00;99.90
12602;DHT22;30282;16.436;99.370;2023-09-12T11:34:38;28.00;99.90
12602;DHT22;30282;16.436;99.370;2023-09-12T11:37:09;28.00;99.90
12602;DHT22;30282;16.436;99.370;2023-09-12T11:39:40;28.00;99.90
12602;DHT22;30282;16.436;99.370;2023-09-12T11:42:11;28.00;99.90
12602;DHT22;30282;16.436;99.370;2023-09-12T11:44:41;28.00;99.90
12602;DHT22;30282;16.436;99.370;2023-09-12T11:47:13;27.90;99.90
12602;DHT22;30282;16.436;99.370;2023-09-12T11:49:43;28.00;99.90
12602;DHT22;30282;16.436;99.370;2023-09-12T11:52:14;28.00;99.90
12602;DHT22;30282;16.436;99.370;2023-09-12T11:54:44;27.80;99.90
12602;DHT22;30282;16.436;99.370;2023-09-12T11:57:14;27.80;99.90
12602;DHT22;30282;16.436;99.370;2023-09-12T11:59:44;27.80;99.90
12602;DHT22;30282;16.436;99.370;2023-09-12T12:02:17;27.80;99.90
12602;DHT22;30282;16.436;99.370;2023-09-12T12:04:47;27.80;99.90
12602;DHT22;30282;16.436;99.370;2023-09-12T12:07:17;27.70;99.90
12602;DHT22;30282;16.436;99.370;2023-09-12T12:09:46;27.70;99.90
12602;DHT22;30282;16.436;99.370;2023-09-12T12:12:15;27.80;99.90
12602;DHT22;30282;16.436;99.370;2023-09-12T12:14:48;27.70;99.90
12602;DHT22;30282;16.436;99.370;2023-09-12T12:17:19;27.80;99.90
12602;DHT22;30282;16.436;99.370;2023-09-12T12:19:49;27.70;99.90
12602;DHT22;30282;16.436;99.370;2023-09-12T12:22:19;27.70;99.90
12602;DHT22;30282;16.436;99.370;2023-09-12T12:24:50;27.70;99.90
12602;DHT22;30282;16.436;99.370;2023-09-12T12:27:20;27.70;99.90
12602;DHT22;30282;16.436;99.370;2023-09-12T12:29:50;27.60;99.90
12602;DHT22;30282;16.436;99.370;2023-09-12T12:32:21;27.60;99.90
12602;DHT22;30282;16.436;99.370;2023-09-12T12:34:50;27.60;99.90
12602;DHT22;30282;16.436;99.370;2023-09-12T12:37:19;27.60;99.90
12602;DHT22;30282;16.436;99.370;2023-09-12T12:39:49;27.60;99.90
12602;DHT22;30282;16.436;99.370;2023-09-12T12:42:18;27.60;99.90
12602;DHT22;30282;16.436;99.370;2023-09-12T12:44:54;27.60;99.90
12602;DHT22;30282;16.436;99.370;2023-09-12T12:47:25;27.60;99.90
12602;DHT22;30282;16.436;99.370;2023-09-12T12:49:55;27.60;99.90
12602;DHT22;30282;16.436;99.370;2023-09-12T12:52:25;27.60;99.90
12602;DHT22;30282;16.436;99.370;2023-09-12T12:55:04;27.60;99.90
12602;DHT22;30282;16.436;99.370;2023-09-12T12:57:36;27.60;99.90
12602;DHT22;30282;16.436;99.370;2023-09-12T13:00:08;27.60;99.90
12602;DHT22;30282;16.436;99.370;2023-09-12T13:02:46;27.60;99.90
12602;DHT22;30282;16.436;99.370;2023-09-12T13:05:23;27.60;99.90
12602;DHT22;30282;16.436;99.370;2023-09-12T13:07:53;27.60;99.90
12602;DHT22;30282;16.436;99.370;2023-09-12T13:10:23;27.60;99.90
12602;DHT22;30282;16.436;99.370;2023-09-12T13:12:53;27.60;99.90
12602;DHT22;30282;16.436;99.370;2023-09-12T13:15:22;27.60;99.90
12602;DHT22;30282;16.436;99.370;2023-09-12T13:17:53;27.60;99.90
12602;DHT22;30282;16.436;99.370;2023-09-12T13:20:23;27.60;99.90
12602;DHT22;30282;16.436;99.370;2023-09-12T13:22:52;27.60;99.90
12602;DHT22;30282;16.436;99.370;2023-09-12T13:25:21;27.60;99.90
12602;DHT22;30282;16.436;99.370;2023-09-12T13:27:53;27.50;99.90
12602;DHT22;30282;16.436;99.370;2023-09-12T13:30:24;27.50;99.90
12602;DHT22;30282;16.436;99.370;2023-09-12T13:33:01;27.50;99.90
12602;DHT22;30282;16.436;99.370;2023-09-12T13:35:41;27.50;99.90
12602;DHT22;30282;16.436;99.370;2023-09-12T13:38:10;27.40;99.90
12602;DHT22;30282;16.436;99.370;2023-09-12T13:40:44;27.40;99.90
12602;DHT22;30282;16.436;99.370;2023-09-12T13:43:26;27.30;99.90
12602;DHT22;30282;16.436;99.370;2023-09-12T13:46:04;27.40;99.90
12602;DHT22;30282;16.436;99.370;2023-09-12T13:48:53;27.30;99.90
12602;DHT22;30282;16.436;99.370;2023-09-12T13:51:24;27.40;99.90
12602;DHT22;30282;16.436;99.370;2023-09-12T13:53:55;27.40;99.90
12602;DHT22;30282;16.436;99.370;2023-09-12T13:56:25;27.40;99.90
12602;DHT22;30282;16.436;99.370;2023-09-12T13:58:56;27.40;99.90
12602;DHT22;30282;16.436;99.370;2023-09-12T14:01:29;27.40;99.90
12602;DHT22;30282;16.436;99.370;2023-09-12T14:04:03;27.40;99.90
12602;DHT22;30282;16.436;99.370;2023-09-12T14:06:40;27.40;99.90
12602;DHT22;30282;16.436;99.370;2023-09-12T14:09:14;27.30;99.90
12602;DHT22;30282;16.436;99.370;2023-09-12T14:11:43;27.20;99.90
12602;DHT22;30282;16.436;99.370;2023-09-12T14:14:13;27.20;99.90
12602;DHT22;30282;16.436;99.370;2023-09-12T14:16:44;27.20;99.90
12602;DHT22;30282;16.436;99.370;2023-09-12T14:19:16;27.30;99.90
12602;DHT22;30282;16.436;99.370;2023-09-12T14:21:45;27.30;99.90
12602;DHT22;30282;16.436;99.370;2023-09-12T14:24:14;27.30;99.90
12602;DHT22;30282;16.436;99.370;2023-09-12T14:26:43;27.30;99.90
12602;DHT22;30282;16.436;99.370;2023-09-12T14:29:13;27.30;99.90
12602;DHT22;30282;16.436;99.370;2023-09-12T14:31:42;27.30;99.90
12602;DHT22;30282;16.436;99.370;2023-09-12T14:34:18;27.30;99.90
12602;DHT22;30282;16.436;99.370;2023-09-12T14:36:48;27.20;99.90
12602;DHT22;30282;16.436;99.370;2023-09-12T14:39:17;27.30;99.90
12602;DHT22;30282;16.436;99.370;2023-09-12T14:41:47;27.20;99.90
12602;DHT22;30282;16.436;99.370;2023-09-12T14:44:19;27.20;99.90
12602;DHT22;30282;16.436;99.370;2023-09-12T14:46:48;27.20;99.90
12602;DHT22;30282;16.436;99.370;2023-09-12T14:49:19;27.30;99.90
12602;DHT22;30282;16.436;99.370;2023-09-12T14:51:49;27.30;99.90
12602;DHT22;30282;16.436;99.370;2023-09-12T14:54:18;27.30;99.90
12602;DHT22;30282;16.436;99.370;2023-09-12T14:56:50;27.20;99.90
12602;DHT22;30282;16.436;99.370;2023-09-12T14:59:19;27.20;99.90
12602;DHT22;30282;16.436;99.370;2023-09-12T15:01:49;27.30;99.90
12602;DHT22;30282;16.436;99.370;2023-09-12T15:04:20;27.30;99.90
12602;DHT22;30282;16.436;99.370;2023-09-12T15:06:51;27.30;99.90
12602;DHT22;30282;16.436;99.370;2023-09-12T15:09:20;27.30;99.90
12602;DHT22;30282;16.436;99.370;2023-09-12T15:11:49;27.40;99.90
12602;DHT22;30282;16.436;99.370;2023-09-12T15:14:19;27.40;99.90
12602;DHT22;30282;16.436;99.370;2023-09-12T15:16:49;27.30;99.90
12602;DHT22;30282;16.436;99.370;2023-09-12T15:19:22;27.20;99.90
12602;DHT22;30282;16.436;99.370;2023-09-12T15:21:52;27.20;99.90
12602;DHT22;30282;16.436;99.370;2023-09-12T15:24:21;27.20;99.90
12602;DHT22;30282;16.436;99.370;2023-09-12T15:26:50;27.20;99.90
12602;DHT22;30282;16.436;99.370;2023-09-12T15:29:19;27.20;99.90
12602;DHT22;30282;16.436;99.370;2023-09-12T15:31:49;27.20;99.90
12602;DHT22;30282;16.436;99.370;2023-09-12T15:34:18;27.20;99.90
12602;DHT22;30282;16.436;99.370;2023-09-12T15:36:49;27.20;99.90
12602;DHT22;30282;16.436;99.370;2023-09-12T15:39:18;27.20;99.90
12602;DHT22;30282;16.436;99.370;2023-09-12T15:41:48;27.20;99.90